sensor_id;sensor_type;location;lat;lon;timestamp;pressure;altitude;pressure_sealevel;temperature;humidity
59513;BME280;45330;51.634;5.562;2024-02-23T00:01:31;98749.84;;;3.35;100.00
59513;BME280;45330;51.634;5.562;2024-02-23T00:03:56;98748.16;;;3.32;100.00
59513;BME280;45330;51.634;5.562;2024-02-23T00:06:21;98778.91;;;3.38;100.00
59513;BME280;45330;51.634;5.562;2024-02-23T00:08:53;98780.56;;;3.46;100.00
59513;BME280;45330;51.634;5.562;2024-02-23T00:11:20;98778.00;;;3.44;100.00
59513;BME280;45330;51.634;5.562;2024-02-23T00:13:45;98764.44;;;3.30;100.00
59513;BME280;45330;51.634;5.562;2024-02-23T00:16:11;98715.06;;;2.97;100.00
59513;BME280;45330;51.634;5.562;2024-02-23T00:18:36;98776.38;;;3.37;100.00
59513;BME280;45330;51.634;5.562;2024-02-23T00:21:02;98747.34;;;3.25;100.00
59513;BME280;45330;51.634;5.562;2024-02-23T00:23:27;98749.09;;;3.20;100.00
59513;BME280;45330;51.634;5.562;2024-02-23T00:25:54;98785.78;;;3.39;100.00
59513;BME280;45330;51.634;5.562;2024-02-23T00:28:19;98778.09;;;3.36;100.00
59513;BME280;45330;51.634;5.562;2024-02-23T00:30:44;98784.94;;;3.34;100.00
59513;BME280;45330;51.634;5.562;2024-02-23T00:33:10;98794.41;;;3.34;100.00
59513;BME280;45330;51.634;5.562;2024-02-23T00:35:35;98773.09;;;3.18;100.00
59513;BME280;45330;51.634;5.562;2024-02-23T00:38:01;98803.81;;;3.35;100.00
59513;BME280;45330;51.634;5.562;2024-02-23T00:40:26;98800.34;;;3.36;100.00
59513;BME280;45330;51.634;5.562;2024-02-23T00:42:51;98785.91;;;3.25;100.00
59513;BME280;45330;51.634;5.562;2024-02-23T00:45:17;98767.09;;;3.20;100.00
59513;BME280;45330;51.634;5.562;2024-02-23T00:47:43;98800.31;;;3.39;100.00
59513;BME280;45330;51.634;5.562;2024-02-23T00:50:08;98772.19;;;3.23;100.00
59513;BME280;45330;51.634;5.562;2024-02-23T00:52:34;98792.69;;;3.33;100.00
59513;BME280;45330;51.634;5.562;2024-02-23T00:55:00;98808.03;;;3.42;100.00
59513;BME280;45330;51.634;5.562;2024-02-23T00:57:25;98783.34;;;3.25;100.00
59513;BME280;45330;51.634;5.562;2024-02-23T00:59:56;98791.06;;;3.24;100.00
59513;BME280;45330;51.634;5.562;2024-02-23T01:02:21;98815.75;;;3.39;100.00
59513;BME280;45330;51.634;5.562;2024-02-23T01:04:46;98813.22;;;3.34;100.00
59513;BME280;45330;51.634;5.562;2024-02-23T01:07:12;98823.47;;;3.40;100.00
59513;BME280;45330;51.634;5.562;2024-02-23T01:09:38;98812.44;;;3.26;100.00
59513;BME280;45330;51.634;5.562;2024-02-23T01:12:03;98837.22;;;3.36;100.00
59513;BME280;45330;51.634;5.562;2024-02-23T01:14:29;98827.00;;;3.29;100.00
59513;BME280;45330;51.634;5.562;2024-02-23T01:16:54;98853.47;;;3.38;100.00
59513;BME280;45330;51.634;5.562;2024-02-23T01:19:19;98844.06;;;3.36;100.00
59513;BME280;45330;51.634;5.562;2024-02-23T01:21:45;98837.25;;;3.35;100.00
59513;BME280;45330;51.634;5.562;2024-02-23T01:24:10;98852.53;;;3.46;100.00
59513;BME280;45330;51.634;5.562;2024-02-23T01:26:35;98851.75;;;3.39;100.00
59513;BME280;45330;51.634;5.562;2024-02-23T01:29:01;98847.53;;;3.30;100.00
59513;BME280;45330;51.634;5.562;2024-02-23T01:31:28;98857.78;;;3.33;100.00
59513;BME280;45330;51.634;5.562;2024-02-23T01:33:54;98833.91;;;3.22;100.00
59513;BME280;45330;51.634;5.562;2024-02-23T01:36:19;98854.38;;;3.34;100.00
59513;BME280;45330;51.634;5.562;2024-02-23T01:38:45;98824.63;;;3.07;100.00
59513;BME280;45330;51.634;5.562;2024-02-23T01:41:10;98831.31;;;3.23;100.00
59513;BME280;45330;51.634;5.562;2024-02-23T01:43:37;98828.78;;;3.19;100.00
59513;BME280;45330;51.634;5.562;2024-02-23T01:46:03;98862.06;;;3.36;100.00
59513;BME280;45330;51.634;5.562;2024-02-23T01:48:29;98833.97;;;3.16;100.00
59513;BME280;45330;51.634;5.562;2024-02-23T01:50:55;98862.94;;;3.32;100.00
59513;BME280;45330;51.634;5.562;2024-02-23T01:53:20;98865.53;;;3.32;100.00
59513;BME280;45330;51.634;5.562;2024-02-23T01:55:47;98856.13;;;3.31;100.00
59513;BME280;45330;51.634;5.562;2024-02-23T01:58:13;98844.22;;;3.17;100.00
59513;BME280;45330;51.634;5.562;2024-02-23T02:00:39;98832.31;;;3.08;100.00
59513;BME280;45330;51.634;5.562;2024-02-23T02:03:04;98853.69;;;3.15;100.00
59513;BME280;45330;51.634;5.562;2024-02-23T02:05:30;98858.75;;;3.23;100.00
59513;BME280;45330;51.634;5.562;2024-02-23T02:07:56;98875.78;;;3.36;100.00
59513;BME280;45330;51.634;5.562;2024-02-23T02:10:25;98850.16;;;3.25;100.00
59513;BME280;45330;51.634;5.562;2024-02-23T02:12:51;98865.50;;;3.33;100.00
59513;BME280;45330;51.634;5.562;2024-02-23T02:15:16;98871.56;;;3.26;100.00
59513;BME280;45330;51.634;5.562;2024-02-23T02:17:42;98888.63;;;3.36;100.00
59513;BME280;45330;51.634;5.562;2024-02-23T02:20:11;98868.97;;;3.28;100.00
59513;BME280;45330;51.634;5.562;2024-02-23T02:22:37;98886.09;;;3.35;100.00
59513;BME280;45330;51.634;5.562;2024-02-23T02:25:02;98898.06;;;3.33;100.00
59513;BME280;45330;51.634;5.562;2024-02-23T02:27:28;98904.06;;;3.33;100.00
59513;BME280;45330;51.634;5.562;2024-02-23T02:29:53;98892.09;;;3.32;100.00
59513;BME280;45330;51.634;5.562;2024-02-23T02:32:19;98887.84;;;3.26;100.00
59513;BME280;45330;51.634;5.562;2024-02-23T02:34:44;98907.53;;;3.32;100.00
59513;BME280;45330;51.634;5.562;2024-02-23T02:37:10;98867.41;;;3.11;100.00
59513;BME280;45330;51.634;5.562;2024-02-23T02:39:35;98871.69;;;3.09;100.00
59513;BME280;45330;51.634;5.562;2024-02-23T02:42:01;98849.56;;;2.94;100.00
59513;BME280;45330;51.634;5.562;2024-02-23T02:44:26;98849.53;;;2.97;100.00
59513;BME280;45330;51.634;5.562;2024-02-23T02:46:55;98913.56;;;3.22;100.00
59513;BME280;45330;51.634;5.562;2024-02-23T02:49:21;98879.50;;;3.00;100.00
59513;BME280;45330;51.634;5.562;2024-02-23T02:51:46;98876.94;;;2.95;100.00
59513;BME280;45330;51.634;5.562;2024-02-23T02:54:11;98919.59;;;3.21;100.00
59513;BME280;45330;51.634;5.562;2024-02-23T02:56:45;98906.03;;;3.00;100.00
59513;BME280;45330;51.634;5.562;2024-02-23T02:59:12;98937.59;;;3.18;100.00
59513;BME280;45330;51.634;5.562;2024-02-23T03:01:37;98901.72;;;3.05;100.00
59513;BME280;45330;51.634;5.562;2024-02-23T03:04:03;98896.59;;;3.04;100.00
59513;BME280;45330;51.634;5.562;2024-02-23T03:06:28;98918.78;;;3.16;100.00
59513;BME280;45330;51.634;5.562;2024-02-23T03:08:54;98942.72;;;3.24;100.00
59513;BME280;45330;51.634;5.562;2024-02-23T03:11:19;98930.78;;;3.17;100.00
59513;BME280;45330;51.634;5.562;2024-02-23T03:13:44;98930.78;;;3.12;100.00
59513;BME280;45330;51.634;5.562;2024-02-23T03:16:20;98898.38;;;2.94;100.00
59513;BME280;45330;51.634;5.562;2024-02-23T03:18:46;98934.22;;;3.08;100.00
59513;BME280;45330;51.634;5.562;2024-02-23T03:21:12;98940.97;;;3.26;100.00
59513;BME280;45330;51.634;5.562;2024-02-23T03:23:38;98937.56;;;3.24;100.00
59513;BME280;45330;51.634;5.562;2024-02-23T03:26:03;98922.25;;;3.10;100.00
59513;BME280;45330;51.634;5.562;2024-02-23T03:28:29;98876.19;;;2.79;100.00
59513;BME280;45330;51.634;5.562;2024-02-23T03:30:54;98888.97;;;2.90;100.00
59513;BME280;45330;51.634;5.562;2024-02-23T03:33:20;98889.81;;;2.92;100.00
59513;BME280;45330;51.634;5.562;2024-02-23T03:35:45;98921.41;;;3.05;100.00
59513;BME280;45330;51.634;5.562;2024-02-23T03:38:10;98947.00;;;3.20;100.00
59513;BME280;45330;51.634;5.562;2024-02-23T03:40:36;98932.47;;;3.16;100.00
59513;BME280;45330;51.634;5.562;2024-02-23T03:43:02;98937.63;;;3.15;100.00
59513;BME280;45330;51.634;5.562;2024-02-23T03:45:27;98941.00;;;3.21;100.00
59513;BME280;45330;51.634;5.562;2024-02-23T03:47:53;98949.59;;;3.17;100.00
59513;BME280;45330;51.634;5.562;2024-02-23T03:50:18;98928.28;;;3.04;100.00
59513;BME280;45330;51.634;5.562;2024-02-23T03:52:44;98918.06;;;2.98;100.00
59513;BME280;45330;51.634;5.562;2024-02-23T03:55:09;98949.66;;;3.11;100.00
59513;BME280;45330;51.634;5.562;2024-02-23T03:57:35;98924.88;;;2.99;100.00
59513;BME280;45330;51.634;5.562;2024-02-23T04:00:00;98946.97;;;3.28;100.00
59513;BME280;45330;51.634;5.562;2024-02-23T04:02:25;98923.84;;;3.26;100.00
59513;BME280;45330;51.634;5.562;2024-02-23T04:04:51;98911.06;;;3.16;100.00
59513;BME280;45330;51.634;5.562;2024-02-23T04:07:16;98949.50;;;3.31;100.00
59513;BME280;45330;51.634;5.562;2024-02-23T04:09:42;98925.56;;;3.24;100.00
59513;BME280;45330;51.634;5.562;2024-02-23T04:12:07;98945.09;;;3.46;100.00
59513;BME280;45330;51.634;5.562;2024-02-23T04:14:33;98951.06;;;3.51;100.00
59513;BME280;45330;51.634;5.562;2024-02-23T04:17:04;98917.75;;;3.37;100.00
59513;BME280;45330;51.634;5.562;2024-02-23T04:19:29;98933.94;;;3.48;100.00
59513;BME280;45330;51.634;5.562;2024-02-23T04:21:54;98946.84;;;3.45;100.00
59513;BME280;45330;51.634;5.562;2024-02-23T04:24:20;98961.41;;;3.43;100.00
59513;BME280;45330;51.634;5.562;2024-02-23T04:26:45;98929.00;;;3.20;100.00
59513;BME280;45330;51.634;5.562;2024-02-23T04:29:11;98950.38;;;3.29;100.00
59513;BME280;45330;51.634;5.562;2024-02-23T04:31:37;98938.41;;;3.23;100.00
59513;BME280;45330;51.634;5.562;2024-02-23T04:34:03;98977.63;;;3.56;100.00
59513;BME280;45330;51.634;5.562;2024-02-23T04:36:28;98966.44;;;3.57;100.00
59513;BME280;45330;51.634;5.562;2024-02-23T04:38:54;98981.81;;;3.66;100.00
59513;BME280;45330;51.634;5.562;2024-02-23T04:41:20;98986.09;;;3.69;100.00
59513;BME280;45330;51.634;5.562;2024-02-23T04:43:49;98922.09;;;3.30;100.00
59513;BME280;45330;51.634;5.562;2024-02-23T04:46:14;98980.94;;;3.69;100.00
59513;BME280;45330;51.634;5.562;2024-02-23T04:48:40;98952.78;;;3.52;100.00
59513;BME280;45330;51.634;5.562;2024-02-23T04:51:06;98996.31;;;3.76;100.00
59513;BME280;45330;51.634;5.562;2024-02-23T04:53:37;98977.47;;;3.73;100.00
59513;BME280;45330;51.634;5.562;2024-02-23T04:56:06;98987.69;;;3.82;100.00
59513;BME280;45330;51.634;5.562;2024-02-23T04:58:31;98986.72;;;3.95;100.00
59513;BME280;45330;51.634;5.562;2024-02-23T05:00:57;98984.94;;;4.01;100.00
59513;BME280;45330;51.634;5.562;2024-02-23T05:03:22;98990.06;;;4.04;100.00
59513;BME280;45330;51.634;5.562;2024-02-23T05:05:48;98988.34;;;4.03;100.00
59513;BME280;45330;51.634;5.562;2024-02-23T05:08:18;98963.56;;;3.91;100.00
59513;BME280;45330;51.634;5.562;2024-02-23T05:10:44;98960.97;;;3.95;100.00
59513;BME280;45330;51.634;5.562;2024-02-23T05:13:09;98992.53;;;4.15;100.00
59513;BME280;45330;51.634;5.562;2024-02-23T05:15:35;98984.84;;;4.11;100.00
59513;BME280;45330;51.634;5.562;2024-02-23T05:18:00;98923.47;;;3.73;100.00
59513;BME280;45330;51.634;5.562;2024-02-23T05:20:25;99005.31;;;4.24;100.00
59513;BME280;45330;51.634;5.562;2024-02-23T05:22:51;98998.41;;;4.27;100.00
59513;BME280;45330;51.634;5.562;2024-02-23T05:25:16;98995.81;;;4.31;100.00
59513;BME280;45330;51.634;5.562;2024-02-23T05:27:42;98994.09;;;4.29;100.00
59513;BME280;45330;51.634;5.562;2024-02-23T05:30:07;98964.19;;;4.15;100.00
59513;BME280;45330;51.634;5.562;2024-02-23T05:32:33;98913.94;;;3.83;100.00
59513;BME280;45330;51.634;5.562;2024-02-23T05:34:58;98976.97;;;4.25;100.00
59513;BME280;45330;51.634;5.562;2024-02-23T05:37:24;98980.31;;;4.34;100.00
59513;BME280;45330;51.634;5.562;2024-02-23T05:39:50;98953.00;;;4.20;100.00
59513;BME280;45330;51.634;5.562;2024-02-23T05:42:16;98967.50;;;4.31;100.00
59513;BME280;45330;51.634;5.562;2024-02-23T05:44:44;98952.09;;;4.23;100.00
59513;BME280;45330;51.634;5.562;2024-02-23T05:47:10;98993.91;;;4.46;100.00
59513;BME280;45330;51.634;5.562;2024-02-23T05:49:35;98951.19;;;4.28;100.00
59513;BME280;45330;51.634;5.562;2024-02-23T05:52:01;98981.97;;;4.41;100.00
59513;BME280;45330;51.634;5.562;2024-02-23T05:54:26;98937.50;;;4.26;100.00
59513;BME280;45330;51.634;5.562;2024-02-23T05:56:52;98946.03;;;4.28;100.00
59513;BME280;45330;51.634;5.562;2024-02-23T05:59:17;98951.13;;;4.36;100.00
59513;BME280;45330;51.634;5.562;2024-02-23T06:01:42;98943.41;;;4.35;100.00
59513;BME280;45330;51.634;5.562;2024-02-23T06:04:08;98940.00;;;4.33;100.00
59513;BME280;45330;51.634;5.562;2024-02-23T06:06:34;98949.34;;;4.40;100.00
59513;BME280;45330;51.634;5.562;2024-02-23T06:08:59;98934.84;;;4.31;100.00
59513;BME280;45330;51.634;5.562;2024-02-23T06:11:25;98974.13;;;4.52;100.00
59513;BME280;45330;51.634;5.562;2024-02-23T06:13:51;98974.13;;;4.52;100.00
59513;BME280;45330;51.634;5.562;2024-02-23T06:16:16;98937.41;;;4.33;100.00
59513;BME280;45330;51.634;5.562;2024-02-23T06:18:41;98945.94;;;4.38;100.00
59513;BME280;45330;51.634;5.562;2024-02-23T06:21:14;98973.22;;;4.53;100.00
59513;BME280;45330;51.634;5.562;2024-02-23T06:23:40;98963.78;;;4.53;100.00
59513;BME280;45330;51.634;5.562;2024-02-23T06:26:06;98972.31;;;4.57;100.00
59513;BME280;45330;51.634;5.562;2024-02-23T06:28:32;98974.88;;;4.60;100.00
59513;BME280;45330;51.634;5.562;2024-02-23T06:30:58;98968.19;;;4.45;100.00
59513;BME280;45330;51.634;5.562;2024-02-23T06:33:23;98895.59;;;4.12;100.00
59513;BME280;45330;51.634;5.562;2024-02-23T06:35:50;98957.03;;;4.44;100.00
59513;BME280;45330;51.634;5.562;2024-02-23T06:38:15;98971.59;;;4.45;100.00
59513;BME280;45330;51.634;5.562;2024-02-23T06:40:40;98994.53;;;4.69;100.00
59513;BME280;45330;51.634;5.562;2024-02-23T06:43:06;98969.78;;;4.54;100.00
59513;BME280;45330;51.634;5.562;2024-02-23T06:45:31;98984.19;;;4.70;100.00
59513;BME280;45330;51.634;5.562;2024-02-23T06:47:56;98991.88;;;4.73;100.00
59513;BME280;45330;51.634;5.562;2024-02-23T06:50:22;98973.81;;;4.75;100.00
59513;BME280;45330;51.634;5.562;2024-02-23T06:52:48;98970.34;;;4.79;100.00
59513;BME280;45330;51.634;5.562;2024-02-23T06:55:15;98931.09;;;4.58;100.00
59513;BME280;45330;51.634;5.562;2024-02-23T06:57:40;98973.78;;;4.81;100.00
59513;BME280;45330;51.634;5.562;2024-02-23T07:00:06;98982.28;;;4.85;100.00
59513;BME280;45330;51.634;5.562;2024-02-23T07:02:32;98946.44;;;4.68;100.00
59513;BME280;45330;51.634;5.562;2024-02-23T07:05:02;98979.69;;;4.86;100.00
59513;BME280;45330;51.634;5.562;2024-02-23T07:07:29;98966.81;;;4.86;100.00
59513;BME280;45330;51.634;5.562;2024-02-23T07:09:56;98944.66;;;4.73;100.00
59513;BME280;45330;51.634;5.562;2024-02-23T07:12:21;98977.06;;;4.89;100.00
59513;BME280;45330;51.634;5.562;2024-02-23T07:14:46;98973.66;;;4.89;100.00
59513;BME280;45330;51.634;5.562;2024-02-23T07:17:12;98956.63;;;4.77;100.00
59513;BME280;45330;51.634;5.562;2024-02-23T07:19:37;98983.06;;;4.93;100.00
59513;BME280;45330;51.634;5.562;2024-02-23T07:22:03;98975.34;;;4.91;100.00
59513;BME280;45330;51.634;5.562;2024-02-23T07:24:28;98982.09;;;5.00;100.00
59513;BME280;45330;51.634;5.562;2024-02-23T07:26:53;98982.94;;;5.02;100.00
59513;BME280;45330;51.634;5.562;2024-02-23T07:29:19;98962.47;;;4.90;100.00
59513;BME280;45330;51.634;5.562;2024-02-23T07:31:45;98966.53;;;5.08;100.00
59513;BME280;45330;51.634;5.562;2024-02-23T07:34:10;98945.25;;;4.92;100.00
59513;BME280;45330;51.634;5.562;2024-02-23T07:36:36;98976.81;;;5.11;100.00
59513;BME280;45330;51.634;5.562;2024-02-23T07:39:01;98975.00;;;5.14;100.00
59513;BME280;45330;51.634;5.562;2024-02-23T07:41:28;98968.91;;;5.23;100.00
59513;BME280;45330;51.634;5.562;2024-02-23T07:43:53;98979.16;;;5.26;100.00
59513;BME280;45330;51.634;5.562;2024-02-23T07:46:19;98979.06;;;5.32;100.00
59513;BME280;45330;51.634;5.562;2024-02-23T07:48:45;98973.03;;;5.33;100.00
59513;BME280;45330;51.634;5.562;2024-02-23T07:51:13;98976.25;;;5.48;100.00
59513;BME280;45330;51.634;5.562;2024-02-23T07:53:38;98971.88;;;5.53;100.00
59513;BME280;45330;51.634;5.562;2024-02-23T07:56:04;98960.56;;;5.60;100.00
59513;BME280;45330;51.634;5.562;2024-02-23T07:58:32;98975.94;;;5.70;100.00
59513;BME280;45330;51.634;5.562;2024-02-23T08:00:57;98957.22;;;5.55;100.00
59513;BME280;45330;51.634;5.562;2024-02-23T08:03:23;98979.44;;;5.65;100.00
59513;BME280;45330;51.634;5.562;2024-02-23T08:05:48;98975.22;;;5.58;100.00
59513;BME280;45330;51.634;5.562;2024-02-23T08:08:13;98946.28;;;5.39;100.00
59513;BME280;45330;51.634;5.562;2024-02-23T08:10:39;98940.19;;;5.45;100.00
59513;BME280;45330;51.634;5.562;2024-02-23T08:13:04;98941.78;;;5.52;100.00
59513;BME280;45330;51.634;5.562;2024-02-23T08:15:29;98906.75;;;5.40;100.00
59513;BME280;45330;51.634;5.562;2024-02-23T08:17:55;98926.25;;;5.55;100.00
59513;BME280;45330;51.634;5.562;2024-02-23T08:20:21;98949.06;;;5.80;100.00
59513;BME280;45330;51.634;5.562;2024-02-23T08:22:46;98953.03;;;6.01;100.00
59513;BME280;45330;51.634;5.562;2024-02-23T08:25:11;98969.06;;;6.18;100.00
59513;BME280;45330;51.634;5.562;2024-02-23T08:27:37;98925.50;;;6.00;100.00
59513;BME280;45330;51.634;5.562;2024-02-23T08:30:04;98957.66;;;6.30;100.00
59513;BME280;45330;51.634;5.562;2024-02-23T08:32:29;98936.59;;;6.07;100.00
59513;BME280;45330;51.634;5.562;2024-02-23T08:34:55;98937.44;;;6.06;100.00
59513;BME280;45330;51.634;5.562;2024-02-23T08:37:25;98924.75;;;5.92;100.00
59513;BME280;45330;51.634;5.562;2024-02-23T08:39:51;98939.41;;;5.91;100.00
59513;BME280;45330;51.634;5.562;2024-02-23T08:42:16;98937.59;;;5.98;100.00
59513;BME280;45330;51.634;5.562;2024-02-23T08:44:41;98966.66;;;6.09;100.00
59513;BME280;45330;51.634;5.562;2024-02-23T08:47:07;98962.38;;;6.08;100.00
59513;BME280;45330;51.634;5.562;2024-02-23T08:49:32;98940.00;;;6.07;100.00
59513;BME280;45330;51.634;5.562;2024-02-23T08:51:57;98947.78;;;6.06;100.00
59513;BME280;45330;51.634;5.562;2024-02-23T08:54:24;98954.50;;;6.14;100.00
59513;BME280;45330;51.634;5.562;2024-02-23T08:56:49;98949.38;;;6.13;100.00
59513;BME280;45330;51.634;5.562;2024-02-23T08:59:14;98958.69;;;6.22;100.00
59513;BME280;45330;51.634;5.562;2024-02-23T09:01:40;98944.88;;;6.23;100.00
59513;BME280;45330;51.634;5.562;2024-02-23T09:04:05;98873.38;;;5.78;100.00
59513;BME280;45330;51.634;5.562;2024-02-23T09:06:30;98954.31;;;6.25;100.00
59513;BME280;45330;51.634;5.562;2024-02-23T09:08:58;98957.81;;;6.21;100.00
59513;BME280;45330;51.634;5.562;2024-02-23T09:11:23;98926.38;;;6.00;100.00
59513;BME280;45330;51.634;5.562;2024-02-23T09:13:49;98918.66;;;5.97;100.00
59513;BME280;45330;51.634;5.562;2024-02-23T09:16:14;98957.81;;;6.21;100.00
59513;BME280;45330;51.634;5.562;2024-02-23T09:18:40;98964.66;;;6.24;100.00
59513;BME280;45330;51.634;5.562;2024-02-23T09:21:05;98926.22;;;6.08;100.00
59513;BME280;45330;51.634;5.562;2024-02-23T09:23:31;98922.84;;;6.06;100.00
59513;BME280;45330;51.634;5.562;2024-02-23T09:25:57;98952.50;;;6.30;100.00
59513;BME280;45330;51.634;5.562;2024-02-23T09:28:23;98911.56;;;6.09;100.00
59513;BME280;45330;51.634;5.562;2024-02-23T09:30:48;98951.53;;;6.36;100.00
59513;BME280;45330;51.634;5.562;2024-02-23T09:33:13;98957.47;;;6.40;100.00
59513;BME280;45330;51.634;5.562;2024-02-23T09:35:39;98923.22;;;6.30;100.00
59513;BME280;45330;51.634;5.562;2024-02-23T09:38:04;98940.16;;;6.45;100.00
59513;BME280;45330;51.634;5.562;2024-02-23T09:40:30;98926.22;;;6.52;100.00
59513;BME280;45330;51.634;5.562;2024-02-23T09:42:56;98922.63;;;6.59;100.00
59513;BME280;45330;51.634;5.562;2024-02-23T09:45:26;98959.41;;;6.74;100.00
59513;BME280;45330;51.634;5.562;2024-02-23T09:47:56;98973.69;;;6.90;100.00
59513;BME280;45330;51.634;5.562;2024-02-23T09:50:25;98976.00;;;7.02;100.00
59513;BME280;45330;51.634;5.562;2024-02-23T09:52:51;98936.75;;;6.83;100.00
59513;BME280;45330;51.634;5.562;2024-02-23T09:55:22;98956.56;;;6.84;100.00
59513;BME280;45330;51.634;5.562;2024-02-23T09:57:51;98926.88;;;6.62;100.00
59513;BME280;45330;51.634;5.562;2024-02-23T10:00:20;98984.03;;;6.90;100.00
59513;BME280;45330;51.634;5.562;2024-02-23T10:02:46;98996.44;;;6.74;100.00
59513;BME280;45330;51.634;5.562;2024-02-23T10:05:12;99001.88;;;6.60;100.00
59513;BME280;45330;51.634;5.562;2024-02-23T10:07:38;98921.94;;;6.07;100.00
59513;BME280;45330;51.634;5.562;2024-02-23T10:10:08;98970.59;;;6.30;100.00
59513;BME280;45330;51.634;5.562;2024-02-23T10:12:34;98994.50;;;6.40;100.00
59513;BME280;45330;51.634;5.562;2024-02-23T10:15:00;98990.22;;;6.39;100.00
59513;BME280;45330;51.634;5.562;2024-02-23T10:17:29;99003.09;;;6.41;100.00
59513;BME280;45330;51.634;5.562;2024-02-23T10:19:55;98999.66;;;6.42;100.00
59513;BME280;45330;51.634;5.562;2024-02-23T10:22:22;98992.94;;;6.31;100.00
59513;BME280;45330;51.634;5.562;2024-02-23T10:24:53;98998.69;;;6.47;100.00
59513;BME280;45330;51.634;5.562;2024-02-23T10:27:18;99001.91;;;6.59;100.00
59513;BME280;45330;51.634;5.562;2024-02-23T10:29:44;98964.19;;;6.50;100.00
59513;BME280;45330;51.634;5.562;2024-02-23T10:32:14;99011.06;;;6.75;100.00
59513;BME280;45330;51.634;5.562;2024-02-23T10:34:42;99017.00;;;6.79;100.00
59513;BME280;45330;51.634;5.562;2024-02-23T10:37:08;99026.47;;;6.80;100.00
59513;BME280;45330;51.634;5.562;2024-02-23T10:39:37;99020.47;;;6.78;100.00
59513;BME280;45330;51.634;5.562;2024-02-23T10:42:04;99005.09;;;6.72;100.00
59513;BME280;45330;51.634;5.562;2024-02-23T10:44:31;99033.16;;;6.90;100.00
59513;BME280;45330;51.634;5.562;2024-02-23T10:46:58;99017.47;;;6.99;100.00
59513;BME280;45330;51.634;5.562;2024-02-23T10:49:28;99029.44;;;7.03;100.00
59513;BME280;45330;51.634;5.562;2024-02-23T10:51:54;99047.31;;;7.14;100.00
59513;BME280;45330;51.634;5.562;2024-02-23T10:54:20;99027.91;;;6.93;100.00
59513;BME280;45330;51.634;5.562;2024-02-23T10:56:49;99054.56;;;6.97;100.00
59513;BME280;45330;51.634;5.562;2024-02-23T10:59:15;99048.00;;;6.80;100.00
59513;BME280;45330;51.634;5.562;2024-02-23T11:01:46;99038.59;;;6.76;100.00
59513;BME280;45330;51.634;5.562;2024-02-23T11:04:13;99027.56;;;6.69;100.00
59513;BME280;45330;51.634;5.562;2024-02-23T11:06:38;99051.47;;;6.78;100.00
59513;BME280;45330;51.634;5.562;2024-02-23T11:09:07;99049.78;;;6.78;100.00
59513;BME280;45330;51.634;5.562;2024-02-23T11:11:36;99048.91;;;6.79;100.00
59513;BME280;45330;51.634;5.562;2024-02-23T11:14:03;99029.22;;;6.70;100.00
59513;BME280;45330;51.634;5.562;2024-02-23T11:16:32;99009.47;;;6.68;100.00
59513;BME280;45330;51.634;5.562;2024-02-23T11:19:04;99045.00;;;7.02;100.00
59513;BME280;45330;51.634;5.562;2024-02-23T11:21:33;99056.69;;;7.18;100.00
59513;BME280;45330;51.634;5.562;2024-02-23T11:24:02;99044.47;;;7.27;100.00
59513;BME280;45330;51.634;5.562;2024-02-23T11:26:28;99040.31;;;7.19;100.00
59513;BME280;45330;51.634;5.562;2024-02-23T11:28:53;99022.38;;;7.12;100.00
59513;BME280;45330;51.634;5.562;2024-02-23T11:31:23;99049.44;;;7.36;100.00
59513;BME280;45330;51.634;5.562;2024-02-23T11:33:56;99049.34;;;7.41;100.00
59513;BME280;45330;51.634;5.562;2024-02-23T11:36:29;99043.34;;;7.38;100.00
59513;BME280;45330;51.634;5.562;2024-02-23T11:38:57;99035.78;;;7.29;100.00
59513;BME280;45330;51.634;5.562;2024-02-23T11:41:23;99060.50;;;7.44;100.00
59513;BME280;45330;51.634;5.562;2024-02-23T11:43:50;99068.19;;;7.47;100.00
59513;BME280;45330;51.634;5.562;2024-02-23T11:46:16;99032.25;;;7.33;100.00
59513;BME280;45330;51.634;5.562;2024-02-23T11:48:42;99041.47;;;7.47;100.00
59513;BME280;45330;51.634;5.562;2024-02-23T11:51:09;99063.41;;;7.66;100.00
59513;BME280;45330;51.634;5.562;2024-02-23T11:53:36;99054.97;;;7.60;100.00
59513;BME280;45330;51.634;5.562;2024-02-23T11:56:04;99059.28;;;7.59;100.00
59513;BME280;45330;51.634;5.562;2024-02-23T11:58:30;99066.28;;;7.55;100.00
59513;BME280;45330;51.634;5.562;2024-02-23T12:00:56;99068.94;;;7.52;100.00
59513;BME280;45330;51.634;5.562;2024-02-23T12:03:22;99059.47;;;7.51;100.00
59513;BME280;45330;51.634;5.562;2024-02-23T12:05:49;99045.66;;;7.52;100.00
59513;BME280;45330;51.634;5.562;2024-02-23T12:08:15;99061.59;;;7.71;100.00
59513;BME280;45330;51.634;5.562;2024-02-23T12:10:41;99042.06;;;7.58;100.00
59513;BME280;45330;51.634;5.562;2024-02-23T12:13:06;99070.19;;;7.72;100.00
59513;BME280;45330;51.634;5.562;2024-02-23T12:15:33;99057.41;;;7.66;100.00
59513;BME280;45330;51.634;5.562;2024-02-23T12:17:58;99065.81;;;7.76;100.00
59513;BME280;45330;51.634;5.562;2024-02-23T12:20:25;99061.16;;;7.90;100.00
59513;BME280;45330;51.634;5.562;2024-02-23T12:22:50;99077.00;;;8.14;100.00
59513;BME280;45330;51.634;5.562;2024-02-23T12:25:19;99072.34;;;8.27;100.00
59513;BME280;45330;51.634;5.562;2024-02-23T12:27:44;99079.06;;;8.34;100.00
59513;BME280;45330;51.634;5.562;2024-02-23T12:30:14;99069.97;;;8.19;100.00
59513;BME280;45330;51.634;5.562;2024-02-23T12:32:40;99071.66;;;8.20;100.00
59513;BME280;45330;51.634;5.562;2024-02-23T12:35:06;99082.03;;;8.20;100.00
59513;BME280;45330;51.634;5.562;2024-02-23T12:37:35;99068.38;;;8.13;100.00
59513;BME280;45330;51.634;5.562;2024-02-23T12:40:00;99053.75;;;8.11;100.00
59513;BME280;45330;51.634;5.562;2024-02-23T12:42:26;99046.63;;;8.19;100.00
59513;BME280;45330;51.634;5.562;2024-02-23T12:44:51;99077.09;;;8.45;100.00
59513;BME280;45330;51.634;5.562;2024-02-23T12:47:17;99065.88;;;8.45;100.00
59513;BME280;45330;51.634;5.562;2024-02-23T12:49:42;99068.53;;;8.41;100.00
59513;BME280;45330;51.634;5.562;2024-02-23T12:52:07;99079.03;;;8.35;100.00
59513;BME280;45330;51.634;5.562;2024-02-23T12:54:33;99083.56;;;8.27;100.00